sensor_id;sensor_type;location;lat;lon;timestamp;P1;durP1;ratioP1;P2;durP2;ratioP2
37529;SDS011;23374;52.758;6.872;2023-02-28T00:00:37;4.77;;;2.57;;
37529;SDS011;23374;52.758;6.872;2023-02-28T00:03:00;4.70;;;2.70;;
37529;SDS011;23374;52.758;6.872;2023-02-28T00:05:22;2.83;;;2.07;;
37529;SDS011;23374;52.758;6.872;2023-02-28T00:07:45;4.60;;;2.37;;
37529;SDS011;23374;52.758;6.872;2023-02-28T00:10:11;3.97;;;2.30;;
37529;SDS011;23374;52.758;6.872;2023-02-28T00:12:35;6.20;;;2.43;;
37529;SDS011;23374;52.758;6.872;2023-02-28T00:14:57;3.67;;;2.17;;
37529;SDS011;23374;52.758;6.872;2023-02-28T00:17:17;4.73;;;2.43;;
37529;SDS011;23374;52.758;6.872;2023-02-28T00:19:41;5.87;;;2.30;;
37529;SDS011;23374;52.758;6.872;2023-02-28T00:22:02;4.13;;;2.10;;
37529;SDS011;23374;52.758;6.872;2023-02-28T00:24:20;5.90;;;2.60;;
37529;SDS011;23374;52.758;6.872;2023-02-28T00:26:42;6.70;;;2.60;;
37529;SDS011;23374;52.758;6.872;2023-02-28T00:29:03;3.40;;;2.10;;
37529;SDS011;23374;52.758;6.872;2023-02-28T00:31:23;5.13;;;2.23;;
37529;SDS011;23374;52.758;6.872;2023-02-28T00:33:44;6.30;;;2.50;;
37529;SDS011;23374;52.758;6.872;2023-02-28T00:36:09;6.67;;;2.63;;
37529;SDS011;23374;52.758;6.872;2023-02-28T00:38:40;4.30;;;2.10;;
37529;SDS011;23374;52.758;6.872;2023-02-28T00:41:09;3.87;;;2.90;;
37529;SDS011;23374;52.758;6.872;2023-02-28T00:43:32;4.13;;;2.50;;
37529;SDS011;23374;52.758;6.872;2023-02-28T00:45:54;4.23;;;2.20;;
37529;SDS011;23374;52.758;6.872;2023-02-28T00:48:15;6.57;;;2.47;;
37529;SDS011;23374;52.758;6.872;2023-02-28T00:50:36;5.63;;;2.30;;
37529;SDS011;23374;52.758;6.872;2023-02-28T00:53:55;4.80;;;2.80;;
37529;SDS011;23374;52.758;6.872;2023-02-28T00:56:14;5.90;;;2.47;;
37529;SDS011;23374;52.758;6.872;2023-02-28T00:58:35;6.63;;;2.77;;
37529;SDS011;23374;52.758;6.872;2023-02-28T01:00:55;3.37;;;2.60;;
37529;SDS011;23374;52.758;6.872;2023-02-28T01:03:17;4.43;;;2.63;;
37529;SDS011;23374;52.758;6.872;2023-02-28T01:05:38;8.03;;;2.67;;
37529;SDS011;23374;52.758;6.872;2023-02-28T01:08:02;4.80;;;2.30;;
37529;SDS011;23374;52.758;6.872;2023-02-28T01:10:22;9.00;;;2.47;;
37529;SDS011;23374;52.758;6.872;2023-02-28T01:12:43;4.00;;;2.83;;
37529;SDS011;23374;52.758;6.872;2023-02-28T01:15:04;5.17;;;2.57;;
37529;SDS011;23374;52.758;6.872;2023-02-28T01:17:22;5.93;;;2.63;;
37529;SDS011;23374;52.758;6.872;2023-02-28T01:19:43;9.73;;;2.33;;
37529;SDS011;23374;52.758;6.872;2023-02-28T01:22:05;6.37;;;2.43;;
37529;SDS011;23374;52.758;6.872;2023-02-28T01:24:27;4.97;;;2.87;;
37529;SDS011;23374;52.758;6.872;2023-02-28T01:26:48;7.50;;;2.37;;
37529;SDS011;23374;52.758;6.872;2023-02-28T01:29:08;11.70;;;3.20;;
37529;SDS011;23374;52.758;6.872;2023-02-28T01:31:28;8.33;;;2.57;;
37529;SDS011;23374;52.758;6.872;2023-02-28T01:33:49;7.23;;;3.20;;
37529;SDS011;23374;52.758;6.872;2023-02-28T01:36:15;6.53;;;2.40;;
37529;SDS011;23374;52.758;6.872;2023-02-28T01:38:38;4.13;;;2.43;;
37529;SDS011;23374;52.758;6.872;2023-02-28T01:40:59;4.87;;;2.77;;
37529;SDS011;23374;52.758;6.872;2023-02-28T01:43:27;8.30;;;3.10;;
37529;SDS011;23374;52.758;6.872;2023-02-28T01:45:53;4.17;;;2.50;;
37529;SDS011;23374;52.758;6.872;2023-02-28T01:48:14;9.70;;;3.33;;
37529;SDS011;23374;52.758;6.872;2023-02-28T01:50:36;8.07;;;2.87;;
37529;SDS011;23374;52.758;6.872;2023-02-28T01:54:09;5.60;;;3.23;;
37529;SDS011;23374;52.758;6.872;2023-02-28T01:56:36;7.07;;;2.90;;
37529;SDS011;23374;52.758;6.872;2023-02-28T01:58:57;5.07;;;2.57;;
37529;SDS011;23374;52.758;6.872;2023-02-28T02:01:18;4.37;;;3.03;;
37529;SDS011;23374;52.758;6.872;2023-02-28T02:03:40;6.13;;;2.67;;
37529;SDS011;23374;52.758;6.872;2023-02-28T02:06:01;8.37;;;2.87;;
37529;SDS011;23374;52.758;6.872;2023-02-28T02:08:24;6.60;;;3.17;;
37529;SDS011;23374;52.758;6.872;2023-02-28T02:10:58;8.87;;;3.10;;
37529;SDS011;23374;52.758;6.872;2023-02-28T02:14:05;5.10;;;2.87;;
37529;SDS011;23374;52.758;6.872;2023-02-28T02:17:10;6.97;;;2.90;;
37529;SDS011;23374;52.758;6.872;2023-02-28T02:20:46;6.10;;;3.00;;
37529;SDS011;23374;52.758;6.872;2023-02-28T02:23:47;6.40;;;3.33;;
37529;SDS011;23374;52.758;6.872;2023-02-28T02:35:52;4.80;;;2.80;;
37529;SDS011;23374;52.758;6.872;2023-02-28T02:39:14;6.43;;;2.53;;
37529;SDS011;23374;52.758;6.872;2023-02-28T02:42:50;6.73;;;3.13;;
37529;SDS011;23374;52.758;6.872;2023-02-28T02:46:45;9.13;;;3.20;;
37529;SDS011;23374;52.758;6.872;2023-02-28T02:49:10;6.83;;;3.60;;
37529;SDS011;23374;52.758;6.872;2023-02-28T02:51:36;6.47;;;2.90;;
37529;SDS011;23374;52.758;6.872;2023-02-28T02:54:17;5.83;;;3.27;;
37529;SDS011;23374;52.758;6.872;2023-02-28T02:56:44;7.20;;;2.70;;
37529;SDS011;23374;52.758;6.872;2023-02-28T02:59:09;8.30;;;3.23;;
37529;SDS011;23374;52.758;6.872;2023-02-28T03:01:32;10.53;;;3.20;;
37529;SDS011;23374;52.758;6.872;2023-02-28T03:04:06;4.90;;;3.33;;
37529;SDS011;23374;52.758;6.872;2023-02-28T03:06:30;5.80;;;2.80;;
37529;SDS011;23374;52.758;6.872;2023-02-28T03:08:50;5.93;;;3.10;;
37529;SDS011;23374;52.758;6.872;2023-02-28T03:11:14;6.67;;;2.80;;
37529;SDS011;23374;52.758;6.872;2023-02-28T03:13:52;5.87;;;3.13;;
37529;SDS011;23374;52.758;6.872;2023-02-28T03:27:29;4.90;;;3.10;;
37529;SDS011;23374;52.758;6.872;2023-02-28T03:30:22;4.43;;;3.00;;
37529;SDS011;23374;52.758;6.872;2023-02-28T03:32:57;7.30;;;3.87;;
37529;SDS011;23374;52.758;6.872;2023-02-28T03:36:51;8.00;;;3.63;;
37529;SDS011;23374;52.758;6.872;2023-02-28T03:39:23;5.97;;;3.03;;
37529;SDS011;23374;52.758;6.872;2023-02-28T03:41:56;5.50;;;3.10;;
37529;SDS011;23374;52.758;6.872;2023-02-28T03:44:25;5.20;;;3.70;;
37529;SDS011;23374;52.758;6.872;2023-02-28T03:47:30;6.70;;;3.50;;
37529;SDS011;23374;52.758;6.872;2023-02-28T03:50:06;7.07;;;2.80;;
37529;SDS011;23374;52.758;6.872;2023-02-28T03:52:42;9.27;;;3.37;;
37529;SDS011;23374;52.758;6.872;2023-02-28T03:55:10;5.83;;;3.43;;
37529;SDS011;23374;52.758;6.872;2023-02-28T03:58:22;8.23;;;4.10;;
37529;SDS011;23374;52.758;6.872;2023-02-28T04:00:57;7.47;;;3.90;;
37529;SDS011;23374;52.758;6.872;2023-02-28T04:03:29;7.37;;;3.57;;
37529;SDS011;23374;52.758;6.872;2023-02-28T04:05:53;7.43;;;4.03;;
37529;SDS011;23374;52.758;6.872;2023-02-28T04:08:15;7.07;;;3.70;;
37529;SDS011;23374;52.758;6.872;2023-02-28T04:10:35;9.13;;;4.40;;
37529;SDS011;23374;52.758;6.872;2023-02-28T04:12:55;9.37;;;4.83;;
37529;SDS011;23374;52.758;6.872;2023-02-28T04:15:16;7.00;;;4.03;;
37529;SDS011;23374;52.758;6.872;2023-02-28T04:17:36;7.60;;;4.00;;
37529;SDS011;23374;52.758;6.872;2023-02-28T04:19:57;11.00;;;4.30;;
37529;SDS011;23374;52.758;6.872;2023-02-28T04:22:22;8.37;;;3.73;;
37529;SDS011;23374;52.758;6.872;2023-02-28T04:24:46;9.10;;;3.90;;
37529;SDS011;23374;52.758;6.872;2023-02-28T04:27:06;7.47;;;4.27;;
37529;SDS011;23374;52.758;6.872;2023-02-28T04:29:29;7.90;;;3.97;;
37529;SDS011;23374;52.758;6.872;2023-02-28T04:31:51;8.00;;;4.53;;
37529;SDS011;23374;52.758;6.872;2023-02-28T04:34:17;7.97;;;4.30;;
37529;SDS011;23374;52.758;6.872;2023-02-28T04:36:38;8.27;;;4.57;;
37529;SDS011;23374;52.758;6.872;2023-02-28T04:38:59;9.33;;;4.33;;
37529;SDS011;23374;52.758;6.872;2023-02-28T04:41:19;8.00;;;4.03;;
37529;SDS011;23374;52.758;6.872;2023-02-28T04:43:41;14.30;;;4.03;;
37529;SDS011;23374;52.758;6.872;2023-02-28T04:46:03;11.33;;;4.23;;
37529;SDS011;23374;52.758;6.872;2023-02-28T04:48:25;9.30;;;4.43;;
37529;SDS011;23374;52.758;6.872;2023-02-28T04:50:47;8.57;;;3.93;;
37529;SDS011;23374;52.758;6.872;2023-02-28T04:53:08;6.77;;;3.90;;
37529;SDS011;23374;52.758;6.872;2023-02-28T04:55:30;9.67;;;4.10;;
37529;SDS011;23374;52.758;6.872;2023-02-28T04:57:51;10.47;;;4.23;;
37529;SDS011;23374;52.758;6.872;2023-02-28T05:00:12;7.90;;;3.87;;
37529;SDS011;23374;52.758;6.872;2023-02-28T05:02:34;6.63;;;3.90;;
37529;SDS011;23374;52.758;6.872;2023-02-28T05:04:55;9.20;;;3.93;;
37529;SDS011;23374;52.758;6.872;2023-02-28T05:07:16;7.23;;;3.77;;
37529;SDS011;23374;52.758;6.872;2023-02-28T05:09:37;6.57;;;3.80;;
37529;SDS011;23374;52.758;6.872;2023-02-28T05:13:19;5.97;;;3.80;;
37529;SDS011;23374;52.758;6.872;2023-02-28T05:15:39;6.60;;;3.93;;
37529;SDS011;23374;52.758;6.872;2023-02-28T05:18:15;6.00;;;3.73;;
37529;SDS011;23374;52.758;6.872;2023-02-28T05:20:35;7.80;;;3.60;;
37529;SDS011;23374;52.758;6.872;2023-02-28T05:22:58;6.70;;;3.53;;
37529;SDS011;23374;52.758;6.872;2023-02-28T05:25:21;6.27;;;3.40;;
37529;SDS011;23374;52.758;6.872;2023-02-28T05:27:42;5.77;;;3.63;;
37529;SDS011;23374;52.758;6.872;2023-02-28T05:30:03;5.23;;;3.10;;
37529;SDS011;23374;52.758;6.872;2023-02-28T05:32:25;7.77;;;4.00;;
37529;SDS011;23374;52.758;6.872;2023-02-28T05:34:45;6.17;;;3.67;;
37529;SDS011;23374;52.758;6.872;2023-02-28T05:37:11;6.60;;;3.97;;
37529;SDS011;23374;52.758;6.872;2023-02-28T05:39:33;5.17;;;3.50;;
37529;SDS011;23374;52.758;6.872;2023-02-28T05:41:52;7.83;;;3.70;;
37529;SDS011;23374;52.758;6.872;2023-02-28T05:44:13;6.43;;;3.13;;
37529;SDS011;23374;52.758;6.872;2023-02-28T05:46:34;5.43;;;3.83;;
37529;SDS011;23374;52.758;6.872;2023-02-28T05:48:55;6.73;;;3.80;;
37529;SDS011;23374;52.758;6.872;2023-02-28T05:51:17;6.90;;;3.80;;
37529;SDS011;23374;52.758;6.872;2023-02-28T05:53:38;6.87;;;3.83;;
37529;SDS011;23374;52.758;6.872;2023-02-28T05:55:58;9.27;;;3.43;;
37529;SDS011;23374;52.758;6.872;2023-02-28T05:58:19;7.67;;;4.00;;
37529;SDS011;23374;52.758;6.872;2023-02-28T06:00:39;5.03;;;3.73;;
37529;SDS011;23374;52.758;6.872;2023-02-28T06:03:00;7.10;;;3.93;;
37529;SDS011;23374;52.758;6.872;2023-02-28T06:05:22;6.27;;;3.77;;
37529;SDS011;23374;52.758;6.872;2023-02-28T06:07:42;6.33;;;4.40;;
37529;SDS011;23374;52.758;6.872;2023-02-28T06:10:03;9.07;;;3.77;;
37529;SDS011;23374;52.758;6.872;2023-02-28T06:12:24;6.53;;;4.23;;
37529;SDS011;23374;52.758;6.872;2023-02-28T06:14:45;5.20;;;3.73;;
37529;SDS011;23374;52.758;6.872;2023-02-28T06:17:05;4.67;;;3.50;;
37529;SDS011;23374;52.758;6.872;2023-02-28T06:19:25;10.07;;;3.73;;
37529;SDS011;23374;52.758;6.872;2023-02-28T06:21:49;7.40;;;3.93;;
37529;SDS011;23374;52.758;6.872;2023-02-28T06:24:12;7.93;;;4.10;;
37529;SDS011;23374;52.758;6.872;2023-02-28T06:26:32;6.20;;;3.97;;
37529;SDS011;23374;52.758;6.872;2023-02-28T06:28:53;4.93;;;3.70;;
37529;SDS011;23374;52.758;6.872;2023-02-28T06:31:15;5.20;;;3.90;;
37529;SDS011;23374;52.758;6.872;2023-02-28T06:33:38;4.83;;;3.57;;
37529;SDS011;23374;52.758;6.872;2023-02-28T06:35:59;5.47;;;3.80;;
37529;SDS011;23374;52.758;6.872;2023-02-28T06:38:27;8.20;;;4.40;;
37529;SDS011;23374;52.758;6.872;2023-02-28T06:40:58;6.90;;;4.60;;
37529;SDS011;23374;52.758;6.872;2023-02-28T06:43:20;7.77;;;4.47;;
37529;SDS011;23374;52.758;6.872;2023-02-28T06:45:42;5.23;;;4.23;;
37529;SDS011;23374;52.758;6.872;2023-02-28T06:48:03;7.03;;;4.17;;
37529;SDS011;23374;52.758;6.872;2023-02-28T06:50:24;5.73;;;4.00;;
37529;SDS011;23374;52.758;6.872;2023-02-28T06:52:45;9.03;;;4.60;;
37529;SDS011;23374;52.758;6.872;2023-02-28T06:55:07;6.43;;;4.07;;
37529;SDS011;23374;52.758;6.872;2023-02-28T06:57:29;6.23;;;4.43;;
37529;SDS011;23374;52.758;6.872;2023-02-28T06:59:51;7.20;;;4.43;;
37529;SDS011;23374;52.758;6.872;2023-02-28T07:02:11;7.40;;;4.17;;
37529;SDS011;23374;52.758;6.872;2023-02-28T07:04:31;5.97;;;3.83;;
37529;SDS011;23374;52.758;6.872;2023-02-28T07:06:56;9.83;;;3.87;;
37529;SDS011;23374;52.758;6.872;2023-02-28T07:09:17;7.57;;;3.73;;
37529;SDS011;23374;52.758;6.872;2023-02-28T07:11:38;6.77;;;4.07;;
37529;SDS011;23374;52.758;6.872;2023-02-28T07:14:01;4.63;;;3.90;;
37529;SDS011;23374;52.758;6.872;2023-02-28T07:16:23;6.80;;;4.17;;
37529;SDS011;23374;52.758;6.872;2023-02-28T07:18:44;8.17;;;4.33;;
37529;SDS011;23374;52.758;6.872;2023-02-28T07:21:07;7.43;;;4.63;;
37529;SDS011;23374;52.758;6.872;2023-02-28T07:23:30;6.77;;;4.20;;
37529;SDS011;23374;52.758;6.872;2023-02-28T07:25:51;6.77;;;4.33;;
37529;SDS011;23374;52.758;6.872;2023-02-28T07:28:12;6.37;;;3.93;;
37529;SDS011;23374;52.758;6.872;2023-02-28T07:30:34;4.67;;;3.40;;
37529;SDS011;23374;52.758;6.872;2023-02-28T07:32:54;9.17;;;3.80;;
37529;SDS011;23374;52.758;6.872;2023-02-28T07:35:16;6.77;;;3.70;;
37529;SDS011;23374;52.758;6.872;2023-02-28T07:37:37;10.50;;;4.27;;
37529;SDS011;23374;52.758;6.872;2023-02-28T07:39:58;7.33;;;3.80;;
37529;SDS011;23374;52.758;6.872;2023-02-28T07:42:19;10.53;;;3.83;;
37529;SDS011;23374;52.758;6.872;2023-02-28T07:44:41;6.07;;;4.13;;
37529;SDS011;23374;52.758;6.872;2023-02-28T07:47:02;8.87;;;4.40;;
37529;SDS011;23374;52.758;6.872;2023-02-28T07:49:23;5.67;;;3.73;;
37529;SDS011;23374;52.758;6.872;2023-02-28T07:51:45;7.03;;;4.83;;
37529;SDS011;23374;52.758;6.872;2023-02-28T07:54:10;11.30;;;4.50;;
37529;SDS011;23374;52.758;6.872;2023-02-28T07:56:30;9.27;;;4.47;;
37529;SDS011;23374;52.758;6.872;2023-02-28T07:58:51;8.13;;;4.80;;
37529;SDS011;23374;52.758;6.872;2023-02-28T08:01:12;7.83;;;4.67;;
37529;SDS011;23374;52.758;6.872;2023-02-28T08:03:33;7.87;;;4.47;;
37529;SDS011;23374;52.758;6.872;2023-02-28T08:05:55;7.70;;;4.73;;
37529;SDS011;23374;52.758;6.872;2023-02-28T08:08:16;10.47;;;4.17;;
37529;SDS011;23374;52.758;6.872;2023-02-28T08:10:37;6.27;;;3.67;;
37529;SDS011;23374;52.758;6.872;2023-02-28T08:12:59;5.70;;;3.50;;
37529;SDS011;23374;52.758;6.872;2023-02-28T08:15:20;7.87;;;3.83;;
37529;SDS011;23374;52.758;6.872;2023-02-28T08:17:40;6.17;;;3.73;;
37529;SDS011;23374;52.758;6.872;2023-02-28T08:20:07;6.83;;;3.33;;
37529;SDS011;23374;52.758;6.872;2023-02-28T08:22:30;9.40;;;5.17;;
37529;SDS011;23374;52.758;6.872;2023-02-28T08:24:51;5.93;;;3.50;;
37529;SDS011;23374;52.758;6.872;2023-02-28T08:27:11;6.13;;;3.77;;
37529;SDS011;23374;52.758;6.872;2023-02-28T08:29:31;10.10;;;3.87;;
37529;SDS011;23374;52.758;6.872;2023-02-28T08:31:52;8.83;;;5.67;;
37529;SDS011;23374;52.758;6.872;2023-02-28T08:34:14;12.03;;;5.87;;
37529;SDS011;23374;52.758;6.872;2023-02-28T08:36:36;9.20;;;5.77;;
37529;SDS011;23374;52.758;6.872;2023-02-28T08:38:57;6.60;;;5.10;;
37529;SDS011;23374;52.758;6.872;2023-02-28T08:41:19;9.03;;;5.17;;
37529;SDS011;23374;52.758;6.872;2023-02-28T08:43:40;5.63;;;4.83;;
37529;SDS011;23374;52.758;6.872;2023-02-28T08:46:01;8.00;;;4.53;;
37529;SDS011;23374;52.758;6.872;2023-02-28T08:48:23;7.27;;;4.70;;
37529;SDS011;23374;52.758;6.872;2023-02-28T08:50:54;8.53;;;5.00;;
37529;SDS011;23374;52.758;6.872;2023-02-28T08:53:21;11.13;;;4.60;;
37529;SDS011;23374;52.758;6.872;2023-02-28T08:55:41;6.00;;;4.10;;
37529;SDS011;23374;52.758;6.872;2023-02-28T08:58:02;7.97;;;5.00;;
37529;SDS011;23374;52.758;6.872;2023-02-28T09:00:23;7.93;;;5.17;;
37529;SDS011;23374;52.758;6.872;2023-02-28T09:02:43;6.30;;;4.67;;
37529;SDS011;23374;52.758;6.872;2023-02-28T09:05:04;7.33;;;4.40;;
37529;SDS011;23374;52.758;6.872;2023-02-28T09:07:28;9.80;;;4.07;;
37529;SDS011;23374;52.758;6.872;2023-02-28T09:10:00;6.83;;;3.87;;
37529;SDS011;23374;52.758;6.872;2023-02-28T09:12:22;9.17;;;3.63;;
37529;SDS011;23374;52.758;6.872;2023-02-28T09:14:44;5.40;;;3.00;;
37529;SDS011;23374;52.758;6.872;2023-02-28T09:17:04;3.67;;;2.73;;
37529;SDS011;23374;52.758;6.872;2023-02-28T09:19:25;5.10;;;2.60;;
37529;SDS011;23374;52.758;6.872;2023-02-28T09:21:46;5.00;;;2.83;;
37529;SDS011;23374;52.758;6.872;2023-02-28T09:24:07;3.83;;;2.43;;
37529;SDS011;23374;52.758;6.872;2023-02-28T09:26:31;3.67;;;2.07;;
37529;SDS011;23374;52.758;6.872;2023-02-28T09:28:53;2.63;;;1.80;;
37529;SDS011;23374;52.758;6.872;2023-02-28T09:31:21;4.20;;;2.30;;
37529;SDS011;23374;52.758;6.872;2023-02-28T09:33:43;5.13;;;2.00;;
37529;SDS011;23374;52.758;6.872;2023-02-28T09:36:04;3.53;;;1.80;;
37529;SDS011;23374;52.758;6.872;2023-02-28T09:38:28;3.07;;;1.70;;
37529;SDS011;23374;52.758;6.872;2023-02-28T09:40:52;3.67;;;2.00;;
37529;SDS011;23374;52.758;6.872;2023-02-28T09:43:16;2.37;;;1.73;;
37529;SDS011;23374;52.758;6.872;2023-02-28T09:45:44;3.20;;;2.00;;
37529;SDS011;23374;52.758;6.872;2023-02-28T09:48:23;1.83;;;1.50;;
37529;SDS011;23374;52.758;6.872;2023-02-28T09:50:55;2.47;;;1.60;;
37529;SDS011;23374;52.758;6.872;2023-02-28T09:53:40;4.10;;;1.60;;
37529;SDS011;23374;52.758;6.872;2023-02-28T09:56:09;2.23;;;1.40;;
37529;SDS011;23374;52.758;6.872;2023-02-28T10:01:20;2.10;;;1.20;;
37529;SDS011;23374;52.758;6.872;2023-02-28T10:03:58;1.97;;;1.47;;
37529;SDS011;23374;52.758;6.872;2023-02-28T10:06:44;1.70;;;1.03;;
37529;SDS011;23374;52.758;6.872;2023-02-28T10:09:26;1.20;;;1.10;;
37529;SDS011;23374;52.758;6.872;2023-02-28T10:11:51;1.97;;;1.30;;
37529;SDS011;23374;52.758;6.872;2023-02-28T10:14:19;2.60;;;1.33;;
37529;SDS011;23374;52.758;6.872;2023-02-28T10:16:51;1.37;;;1.10;;
37529;SDS011;23374;52.758;6.872;2023-02-28T10:19:20;1.67;;;1.00;;
37529;SDS011;23374;52.758;6.872;2023-02-28T10:22:17;2.67;;;1.20;;
37529;SDS011;23374;52.758;6.872;2023-02-28T10:24:58;1.87;;;1.20;;
37529;SDS011;23374;52.758;6.872;2023-02-28T10:27:31;3.07;;;1.30;;
37529;SDS011;23374;52.758;6.872;2023-02-28T10:29:55;1.33;;;1.23;;
37529;SDS011;23374;52.758;6.872;2023-02-28T10:32:27;1.07;;;0.80;;
37529;SDS011;23374;52.758;6.872;2023-02-28T10:35:17;5.33;;;1.10;;
37529;SDS011;23374;52.758;6.872;2023-02-28T10:37:42;0.97;;;0.90;;
37529;SDS011;23374;52.758;6.872;2023-02-28T10:40:33;1.97;;;1.30;;
37529;SDS011;23374;52.758;6.872;2023-02-28T10:43:03;2.00;;;1.17;;
37529;SDS011;23374;52.758;6.872;2023-02-28T10:45:34;1.40;;;1.20;;
37529;SDS011;23374;52.758;6.872;2023-02-28T10:48:29;1.50;;;1.20;;
37529;SDS011;23374;52.758;6.872;2023-02-28T10:50:53;2.63;;;1.30;;
37529;SDS011;23374;52.758;6.872;2023-02-28T10:53:52;3.00;;;1.40;;
37529;SDS011;23374;52.758;6.872;2023-02-28T10:56:22;1.90;;;1.00;;
37529;SDS011;23374;52.758;6.872;2023-02-28T10:58:58;1.63;;;1.10;;
37529;SDS011;23374;52.758;6.872;2023-02-28T11:01:42;2.80;;;1.47;;
37529;SDS011;23374;52.758;6.872;2023-02-28T11:07:04;2.17;;;1.27;;
37529;SDS011;23374;52.758;6.872;2023-02-28T11:09:55;1.20;;;1.10;;
37529;SDS011;23374;52.758;6.872;2023-02-28T11:12:29;2.00;;;1.10;;
37529;SDS011;23374;52.758;6.872;2023-02-28T11:15:02;4.07;;;1.20;;
37529;SDS011;23374;52.758;6.872;2023-02-28T11:17:39;1.53;;;1.20;;
37529;SDS011;23374;52.758;6.872;2023-02-28T11:20:05;2.40;;;1.20;;
37529;SDS011;23374;52.758;6.872;2023-02-28T11:22:29;1.87;;;1.03;;
37529;SDS011;23374;52.758;6.872;2023-02-28T11:24:54;2.10;;;1.10;;
37529;SDS011;23374;52.758;6.872;2023-02-28T11:27:52;2.50;;;1.20;;
37529;SDS011;23374;52.758;6.872;2023-02-28T11:30:32;2.03;;;1.50;;
37529;SDS011;23374;52.758;6.872;2023-02-28T11:33:14;1.20;;;1.00;;
37529;SDS011;23374;52.758;6.872;2023-02-28T11:35:50;1.20;;;1.10;;
37529;SDS011;23374;52.758;6.872;2023-02-28T11:38:12;4.20;;;1.27;;
37529;SDS011;23374;52.758;6.872;2023-02-28T11:52:13;1.27;;;1.00;;
37529;SDS011;23374;52.758;6.872;2023-02-28T11:55:07;2.13;;;1.13;;
37529;SDS011;23374;52.758;6.872;2023-02-28T12:00:32;1.60;;;1.10;;
37529;SDS011;23374;52.758;6.872;2023-02-28T12:06:21;2.37;;;1.43;;
37529;SDS011;23374;52.758;6.872;2023-02-28T12:09:40;2.40;;;1.70;;
37529;SDS011;23374;52.758;6.872;2023-02-28T12:12:44;1.77;;;1.30;;
37529;SDS011;23374;52.758;6.872;2023-02-28T12:26:22;2.80;;;1.50;;
37529;SDS011;23374;52.758;6.872;2023-02-28T12:29:36;2.33;;;1.50;;
37529;SDS011;23374;52.758;6.872;2023-02-28T12:32:16;3.53;;;1.70;;
37529;SDS011;23374;52.758;6.872;2023-02-28T12:35:04;1.93;;;1.50;;
37529;SDS011;23374;52.758;6.872;2023-02-28T12:38:43;1.80;;;1.30;;
37529;SDS011;23374;52.758;6.872;2023-02-28T12:41:13;2.47;;;1.30;;
37529;SDS011;23374;52.758;6.872;2023-02-28T12:45:16;3.63;;;1.80;;
37529;SDS011;23374;52.758;6.872;2023-02-28T12:47:57;2.60;;;1.43;;
37529;SDS011;23374;52.758;6.872;2023-02-28T12:50:24;2.50;;;1.60;;
37529;SDS011;23374;52.758;6.872;2023-02-28T12:53:08;2.70;;;1.50;;
37529;SDS011;23374;52.758;6.872;2023-02-28T13:11:44;4.10;;;1.77;;
37529;SDS011;23374;52.758;6.872;2023-02-28T13:14:37;2.60;;;1.50;;
37529;SDS011;23374;52.758;6.872;2023-02-28T13:17:11;3.40;;;1.90;;
37529;SDS011;23374;52.758;6.872;2023-02-28T13:24:03;3.50;;;1.70;;
37529;SDS011;23374;52.758;6.872;2023-02-28T13:27:22;6.20;;;1.37;;
37529;SDS011;23374;52.758;6.872;2023-02-28T13:29:57;4.17;;;1.63;;
37529;SDS011;23374;52.758;6.872;2023-02-28T13:32:31;1.80;;;1.30;;
37529;SDS011;23374;52.758;6.872;2023-02-28T13:35:36;1.27;;;1.13;;
37529;SDS011;23374;52.758;6.872;2023-02-28T13:38:17;1.57;;;1.13;;
37529;SDS011;23374;52.758;6.872;2023-02-28T13:40:43;3.23;;;1.23;;
37529;SDS011;23374;52.758;6.872;2023-02-28T13:43:07;3.63;;;1.40;;
37529;SDS011;23374;52.758;6.872;2023-02-28T13:45:29;2.87;;;1.40;;
37529;SDS011;23374;52.758;6.872;2023-02-28T13:48:23;2.17;;;1.40;;
37529;SDS011;23374;52.758;6.872;2023-02-28T13:50:50;3.33;;;1.43;;
37529;SDS011;23374;52.758;6.872;2023-02-28T13:53:39;1.87;;;1.40;;
37529;SDS011;23374;52.758;6.872;2023-02-28T13:56:51;1.03;;;0.90;;
37529;SDS011;23374;52.758;6.872;2023-02-28T14:01:48;3.47;;;1.80;;
37529;SDS011;23374;52.758;6.872;2023-02-28T14:05:13;2.10;;;1.33;;
37529;SDS011;23374;52.758;6.872;2023-02-28T14:07:46;3.70;;;1.50;;
37529;SDS011;23374;52.758;6.872;2023-02-28T14:10:39;1.47;;;0.93;;
37529;SDS011;23374;52.758;6.872;2023-02-28T14:13:17;1.13;;;0.70;;
37529;SDS011;23374;52.758;6.872;2023-02-28T14:16:00;1.70;;;1.30;;
37529;SDS011;23374;52.758;6.872;2023-02-28T14:18:34;2.50;;;1.60;;
37529;SDS011;23374;52.758;6.872;2023-02-28T14:36:33;1.67;;;1.10;;
37529;SDS011;23374;52.758;6.872;2023-02-28T14:39:22;1.97;;;1.23;;
37529;SDS011;23374;52.758;6.872;2023-02-28T14:41:45;1.97;;;1.40;;
37529;SDS011;23374;52.758;6.872;2023-02-28T14:44:23;4.37;;;1.00;;
37529;SDS011;23374;52.758;6.872;2023-02-28T14:46:50;1.37;;;1.00;;
37529;SDS011;23374;52.758;6.872;2023-02-28T14:49:37;2.40;;;1.40;;
37529;SDS011;23374;52.758;6.872;2023-02-28T14:52:14;1.33;;;1.17;;
37529;SDS011;23374;52.758;6.872;2023-02-28T14:54:39;1.37;;;1.13;;
37529;SDS011;23374;52.758;6.872;2023-02-28T14:57:01;2.07;;;1.40;;
37529;SDS011;23374;52.758;6.872;2023-02-28T14:59:32;3.63;;;1.20;;
37529;SDS011;23374;52.758;6.872;2023-02-28T15:08:46;2.63;;;1.53;;
37529;SDS011;23374;52.758;6.872;2023-02-28T15:11:14;2.00;;;1.10;;
37529;SDS011;23374;52.758;6.872;2023-02-28T15:13:46;3.53;;;1.40;;
37529;SDS011;23374;52.758;6.872;2023-02-28T15:16:29;2.87;;;1.23;;
37529;SDS011;23374;52.758;6.872;2023-02-28T15:19:06;1.63;;;1.30;;
37529;SDS011;23374;52.758;6.872;2023-02-28T15:21:39;1.63;;;1.10;;
37529;SDS011;23374;52.758;6.872;2023-02-28T15:24:21;1.30;;;1.10;;
37529;SDS011;23374;52.758;6.872;2023-02-28T15:27:30;2.00;;;1.40;;
37529;SDS011;23374;52.758;6.872;2023-02-28T15:29:58;1.27;;;1.03;;
37529;SDS011;23374;52.758;6.872;2023-02-28T15:32:33;2.23;;;1.27;;
37529;SDS011;23374;52.758;6.872;2023-02-28T15:35:37;2.50;;;1.40;;
37529;SDS011;23374;52.758;6.872;2023-02-28T15:38:13;1.87;;;1.47;;
37529;SDS011;23374;52.758;6.872;2023-02-28T15:40:49;2.27;;;1.33;;
37529;SDS011;23374;52.758;6.872;2023-02-28T15:43:18;3.40;;;1.80;;
37529;SDS011;23374;52.758;6.872;2023-02-28T15:45:51;3.27;;;1.60;;
37529;SDS011;23374;52.758;6.872;2023-02-28T15:48:37;1.93;;;1.40;;
37529;SDS011;23374;52.758;6.872;2023-02-28T15:51:46;2.50;;;1.70;;
37529;SDS011;23374;52.758;6.872;2023-02-28T15:54:15;2.77;;;1.53;;
37529;SDS011;23374;52.758;6.872;2023-02-28T15:56:50;3.53;;;1.70;;
37529;SDS011;23374;52.758;6.872;2023-02-28T15:59:18;3.40;;;1.60;;
37529;SDS011;23374;52.758;6.872;2023-02-28T16:02:12;5.03;;;1.53;;
37529;SDS011;23374;52.758;6.872;2023-02-28T16:04:36;2.07;;;1.53;;
37529;SDS011;23374;52.758;6.872;2023-02-28T16:07:14;2.07;;;1.30;;
37529;SDS011;23374;52.758;6.872;2023-02-28T16:09:35;2.20;;;1.67;;
37529;SDS011;23374;52.758;6.872;2023-02-28T16:12:01;2.20;;;1.70;;
37529;SDS011;23374;52.758;6.872;2023-02-28T16:14:24;2.23;;;1.50;;
37529;SDS011;23374;52.758;6.872;2023-02-28T16:16:49;3.97;;;1.53;;
37529;SDS011;23374;52.758;6.872;2023-02-28T16:19:15;3.00;;;1.63;;
37529;SDS011;23374;52.758;6.872;2023-02-28T16:21:35;3.53;;;1.80;;
37529;SDS011;23374;52.758;6.872;2023-02-28T16:23:56;4.73;;;1.87;;
37529;SDS011;23374;52.758;6.872;2023-02-28T16:26:23;2.97;;;1.70;;
37529;SDS011;23374;52.758;6.872;2023-02-28T16:28:46;2.20;;;1.70;;
37529;SDS011;23374;52.758;6.872;2023-02-28T16:31:05;2.27;;;1.67;;
37529;SDS011;23374;52.758;6.872;2023-02-28T16:33:27;1.83;;;1.53;;
37529;SDS011;23374;52.758;6.872;2023-02-28T16:35:47;2.23;;;1.50;;
37529;SDS011;23374;52.758;6.872;2023-02-28T16:38:09;2.27;;;1.80;;
37529;SDS011;23374;52.758;6.872;2023-02-28T16:40:29;3.20;;;1.53;;
37529;SDS011;23374;52.758;6.872;2023-02-28T16:42:59;2.63;;;1.67;;
37529;SDS011;23374;52.758;6.872;2023-02-28T16:45:25;2.70;;;1.83;;
37529;SDS011;23374;52.758;6.872;2023-02-28T16:47:47;3.43;;;2.00;;